createdAt,value
2018-10-21T00:00:52.463Z,8.60
2018-10-21T00:03:20.868Z,9.37
2018-10-21T00:05:49.297Z,8.10
2018-10-21T00:08:17.723Z,7.80
2018-10-21T00:10:46.137Z,8.30
2018-10-21T00:13:14.501Z,7.80
2018-10-21T00:15:43.005Z,8.90
2018-10-21T00:18:11.387Z,8.80
2018-10-21T00:20:39.784Z,9.33
2018-10-21T00:23:08.149Z,8.93
2018-10-21T00:25:37.312Z,8.50
2018-10-21T00:28:06.229Z,8.20
2018-10-21T00:30:34.656Z,8.43
2018-10-21T00:33:03.129Z,9.00
2018-10-21T00:35:31.489Z,8.77
2018-10-21T00:37:59.916Z,7.73
2018-10-21T00:40:28.332Z,8.10
2018-10-21T00:42:56.814Z,8.10
2018-10-21T00:45:25.234Z,9.30
2018-10-21T00:47:53.644Z,8.47
2018-10-21T00:50:22.055Z,8.77
2018-10-21T00:52:50.523Z,9.47
2018-10-21T00:55:18.935Z,9.00
2018-10-21T00:57:47.305Z,9.03
2018-10-21T01:00:15.686Z,9.53
2018-10-21T01:02:44.092Z,10.07
2018-10-21T01:05:12.472Z,8.70
2018-10-21T01:07:40.895Z,9.00
2018-10-21T01:10:11.192Z,9.70
2018-10-21T01:12:39.752Z,9.50
2018-10-21T01:15:09.618Z,9.00
2018-10-21T01:17:37.960Z,10.23
2018-10-21T01:20:08.332Z,10.50
2018-10-21T01:22:36.795Z,10.87
2018-10-21T01:25:05.440Z,9.67
2018-10-21T01:27:33.864Z,8.80
2018-10-21T01:30:02.325Z,8.50
2018-10-21T01:32:30.712Z,9.10
2018-10-21T01:34:59.131Z,10.37
2018-10-21T01:37:27.569Z,9.13
2018-10-21T01:40:59.776Z,9.77
2018-10-21T01:43:30.456Z,8.67
2018-10-21T01:45:59.337Z,9.93
2018-10-21T01:48:28.829Z,9.40
2018-10-21T01:50:57.317Z,10.53
2018-10-21T01:53:25.986Z,10.40
2018-10-21T01:55:54.345Z,11.17
2018-10-21T01:58:22.728Z,11.00
2018-10-21T02:00:51.143Z,10.70
2018-10-21T02:03:19.696Z,10.87
2018-10-21T02:05:48.423Z,9.97
2018-10-21T02:08:16.807Z,9.70
2018-10-21T02:10:45.864Z,9.60
2018-10-21T02:13:14.289Z,9.40
2018-10-21T02:15:42.664Z,9.10
2018-10-21T02:18:11.089Z,9.43
2018-10-21T02:20:39.491Z,9.17
2018-10-21T02:23:07.940Z,9.47
2018-10-21T02:25:37.264Z,8.90
2018-10-21T02:28:05.701Z,8.27
2018-10-21T02:30:34.094Z,9.80
2018-10-21T02:33:02.776Z,8.93
2018-10-21T02:35:31.130Z,9.07
2018-10-21T02:37:59.545Z,8.60
2018-10-21T02:41:39.829Z,8.93
2018-10-21T02:44:10.370Z,8.20
2018-10-21T02:46:39.658Z,8.20
2018-10-21T02:49:08.823Z,8.77
2018-10-21T02:51:37.205Z,8.90
2018-10-21T02:54:06.152Z,9.00
2018-10-21T02:56:34.607Z,11.30
2018-10-21T02:59:03.028Z,8.43
2018-10-21T03:01:31.472Z,9.10
2018-10-21T03:03:59.834Z,8.60
2018-10-21T03:06:28.342Z,9.20
2018-10-21T03:08:56.768Z,9.97
2018-10-21T03:11:25.143Z,8.60
2018-10-21T03:13:54.344Z,8.97
2018-10-21T03:16:22.783Z,8.90
2018-10-21T03:18:51.188Z,9.00
2018-10-21T03:21:19.680Z,9.33
2018-10-21T03:23:48.006Z,8.90
2018-10-21T03:26:16.440Z,9.73
2018-10-21T03:28:44.902Z,9.70
2018-10-21T03:31:13.330Z,9.87
2018-10-21T03:33:41.727Z,9.90
2018-10-21T03:36:10.158Z,9.70
2018-10-21T03:38:39.243Z,9.73
2018-10-21T03:41:07.659Z,9.00
2018-10-21T03:43:36.056Z,9.47
2018-10-21T03:46:04.537Z,9.60
2018-10-21T03:48:32.935Z,9.10
2018-10-21T03:51:01.359Z,9.77
2018-10-21T03:53:29.855Z,9.20
2018-10-21T03:55:58.269Z,9.30
2018-10-21T03:58:26.712Z,8.87
2018-10-21T04:00:55.112Z,9.47
2018-10-21T04:03:23.489Z,10.00
2018-10-21T04:05:51.900Z,10.47
2018-10-21T04:08:20.264Z,9.20
2018-10-21T04:10:48.709Z,8.87
2018-10-21T04:13:17.101Z,9.33
2018-10-21T04:15:45.545Z,9.93
2018-10-21T04:18:13.940Z,9.27
2018-10-21T04:20:42.330Z,9.00
2018-10-21T04:23:10.744Z,9.60
2018-10-21T04:25:39.869Z,9.67
2018-10-21T04:28:08.909Z,9.07
2018-10-21T04:30:38.455Z,8.40
2018-10-21T04:34:09.769Z,9.27
2018-10-21T04:36:38.075Z,10.67
2018-10-21T04:39:45.912Z,8.60
2018-10-21T04:42:14.295Z,8.83
2018-10-21T04:44:42.693Z,9.90
2018-10-21T04:47:11.230Z,9.23
2018-10-21T04:49:39.517Z,10.03
2018-10-21T04:52:08.123Z,9.93
2018-10-21T04:54:36.656Z,9.33
2018-10-21T04:57:07.091Z,10.47
2018-10-21T04:59:36.432Z,10.00
2018-10-21T05:02:04.923Z,9.50
2018-10-21T05:04:33.405Z,9.57
2018-10-21T05:07:01.788Z,10.67
2018-10-21T05:09:31.166Z,10.40
2018-10-21T05:11:59.564Z,9.43
2018-10-21T05:14:27.993Z,10.10
2018-10-21T05:16:56.413Z,10.10
2018-10-21T05:19:24.841Z,9.60
2018-10-21T05:21:53.221Z,11.70
2018-10-21T05:24:21.608Z,9.93
2018-10-21T05:26:50.139Z,10.17
2018-10-21T05:29:18.529Z,10.93
2018-10-21T05:31:46.933Z,11.37
2018-10-21T05:34:15.401Z,10.60
2018-10-21T05:36:43.779Z,9.87
2018-10-21T05:39:12.220Z,10.00
2018-10-21T05:41:41.116Z,9.63
2018-10-21T05:44:09.599Z,9.57
2018-10-21T05:46:48.977Z,10.00
2018-10-21T05:49:17.551Z,10.20
2018-10-21T05:51:47.236Z,9.03
2018-10-21T05:54:16.577Z,10.20
2018-10-21T05:56:46.237Z,10.23
2018-10-21T05:59:15.182Z,8.93
2018-10-21T06:01:44.239Z,10.03
2018-10-21T06:04:13.638Z,10.20
2018-10-21T06:06:41.932Z,9.50
2018-10-21T06:09:11.704Z,9.90
2018-10-21T06:11:40.221Z,10.70
2018-10-21T06:14:08.682Z,10.70
2018-10-21T06:16:56.809Z,10.97
2018-10-21T06:19:32.565Z,10.90
2018-10-21T06:22:01.051Z,11.17
2018-10-21T06:24:29.397Z,11.17
2018-10-21T06:26:57.814Z,11.50
2018-10-21T06:29:26.208Z,9.80
2018-10-21T06:31:54.670Z,10.73
2018-10-21T06:34:24.737Z,10.50
2018-10-21T06:36:53.315Z,9.57
2018-10-21T06:39:21.911Z,10.07
2018-10-21T06:41:50.340Z,10.83
2018-10-21T06:44:18.764Z,10.73
2018-10-21T06:46:47.165Z,9.10
2018-10-21T06:49:15.549Z,10.20
2018-10-21T06:51:43.966Z,10.43
2018-10-21T06:54:12.420Z,11.23
2018-10-21T06:56:40.902Z,11.73
2018-10-21T06:59:09.281Z,11.30
2018-10-21T07:01:37.675Z,11.33
2018-10-21T07:04:06.681Z,11.17
2018-10-21T07:06:35.053Z,12.20
2018-10-21T07:09:05.747Z,10.70
2018-10-21T07:11:34.191Z,11.87
2018-10-21T07:14:02.618Z,11.50
2018-10-21T07:16:32.652Z,11.30
2018-10-21T07:19:00.937Z,10.80
2018-10-21T07:21:29.365Z,10.80
2018-10-21T07:23:57.789Z,12.13
2018-10-21T07:26:26.295Z,12.50
2018-10-21T07:28:54.753Z,13.00
2018-10-21T07:31:23.177Z,12.83
2018-10-21T07:33:51.601Z,14.07
2018-10-21T07:36:20.044Z,13.57
2018-10-21T07:38:48.454Z,13.50
2018-10-21T07:41:16.911Z,13.77
2018-10-21T07:43:45.346Z,14.67
2018-10-21T07:46:13.845Z,15.60
2018-10-21T07:48:42.328Z,13.57
2018-10-21T07:51:10.777Z,15.30
2018-10-21T07:53:39.158Z,15.10
2018-10-21T07:56:07.519Z,17.07
2018-10-21T07:58:35.971Z,15.87
2018-10-21T08:01:04.473Z,15.90
2018-10-21T08:03:32.854Z,15.23
2018-10-21T08:06:30.791Z,17.23
2018-10-21T08:08:59.250Z,17.53
2018-10-21T08:11:27.656Z,18.40
2018-10-21T08:13:56.091Z,19.07
2018-10-21T08:16:24.516Z,18.23
2018-10-21T08:18:53.900Z,17.83
2018-10-21T08:21:22.513Z,18.17
2018-10-21T08:23:50.849Z,20.70
2018-10-21T08:26:19.349Z,20.00
2018-10-21T08:28:47.964Z,19.50
2018-10-21T08:31:16.432Z,20.20
2018-10-21T08:33:44.957Z,19.40
2018-10-21T08:36:13.385Z,18.87
2018-10-21T08:38:41.809Z,18.10
2018-10-21T08:41:10.285Z,18.50
2018-10-21T08:43:38.713Z,18.00
2018-10-21T08:46:07.251Z,17.80
2018-10-21T08:48:35.672Z,18.10
2018-10-21T08:51:04.109Z,17.30
2018-10-21T08:53:32.606Z,17.43
2018-10-21T08:56:01.073Z,18.00
2018-10-21T08:58:29.540Z,17.47
2018-10-21T09:00:58.076Z,18.70
2018-10-21T09:03:26.505Z,18.93
2018-10-21T09:05:54.953Z,19.30
2018-10-21T09:08:23.385Z,18.20
2018-10-21T09:10:51.841Z,19.70
2018-10-21T09:13:20.283Z,20.10
2018-10-21T09:15:48.722Z,18.57
2018-10-21T09:18:17.164Z,17.77
2018-10-21T09:20:45.769Z,19.37
2018-10-21T09:23:14.149Z,21.80
2018-10-21T09:25:42.894Z,21.93
2018-10-21T09:28:11.405Z,19.37
2018-10-21T09:30:39.827Z,18.83
2018-10-21T09:33:08.250Z,18.03
2018-10-21T09:35:36.690Z,17.77
2018-10-21T09:38:06.165Z,18.70
2018-10-21T09:40:34.671Z,17.17
2018-10-21T09:43:04.133Z,16.07
2018-10-21T09:45:32.528Z,17.97
2018-10-21T09:48:01.184Z,21.77
2018-10-21T09:50:29.614Z,19.70
2018-10-21T09:52:58.044Z,19.27
2018-10-21T09:55:26.476Z,20.00
2018-10-21T09:57:54.918Z,16.33
2018-10-21T10:00:28.576Z,15.57
2018-10-21T10:03:02.298Z,14.33
2018-10-21T10:05:30.770Z,14.60
2018-10-21T10:07:59.256Z,14.60
2018-10-21T10:10:27.687Z,14.43
2018-10-21T10:12:56.168Z,14.63
2018-10-21T10:15:24.546Z,15.23
2018-10-21T10:17:53.069Z,12.57
2018-10-21T10:20:21.614Z,12.63
2018-10-21T10:22:50.179Z,12.00
2018-10-21T10:25:18.778Z,12.03
2018-10-21T10:27:47.138Z,12.47
2018-10-21T10:30:15.653Z,11.80
2018-10-21T10:32:44.544Z,11.27
2018-10-21T10:35:13.964Z,11.10
2018-10-21T10:37:42.709Z,10.73
2018-10-21T10:40:12.220Z,11.07
2018-10-21T10:42:41.035Z,10.40
2018-10-21T10:45:09.549Z,10.33
2018-10-21T10:47:38.549Z,9.80
2018-10-21T10:50:10.727Z,10.90
2018-10-21T10:52:39.255Z,10.57
2018-10-21T10:55:08.198Z,9.20
2018-10-21T10:57:36.593Z,8.37
2018-10-21T11:00:05.818Z,8.83
2018-10-21T11:02:34.153Z,8.43
2018-10-21T11:05:02.612Z,8.33
2018-10-21T11:07:31.072Z,9.10
2018-10-21T11:09:59.519Z,17.50
2018-10-21T11:12:27.937Z,9.40
2018-10-21T11:14:57.040Z,11.17
2018-10-21T11:17:25.508Z,8.67
2018-10-21T11:19:53.938Z,8.17
2018-10-21T11:22:22.445Z,7.10
2018-10-21T11:24:50.868Z,7.33
2018-10-21T11:27:19.377Z,6.00
2018-10-21T11:29:49.398Z,5.63
2018-10-21T11:32:17.778Z,6.23
2018-10-21T11:34:46.256Z,6.00
2018-10-21T11:37:14.833Z,6.20
2018-10-21T11:39:43.848Z,5.87
2018-10-21T11:42:12.236Z,5.80
2018-10-21T11:44:40.649Z,5.90
2018-10-21T11:47:09.117Z,5.40
2018-10-21T11:49:37.561Z,5.27
2018-10-21T11:52:07.109Z,7.20
2018-10-21T11:54:35.489Z,5.43
2018-10-21T11:57:03.954Z,5.67
2018-10-21T11:59:32.397Z,6.10
2018-10-21T12:02:00.892Z,5.90
2018-10-21T12:04:30.220Z,5.50
2018-10-21T12:06:58.737Z,5.90
2018-10-21T12:09:27.155Z,40.37
2018-10-21T12:11:55.586Z,7.40
2018-10-21T12:14:24.031Z,8.87
2018-10-21T12:16:52.500Z,7.37
2018-10-21T12:19:20.956Z,5.50
2018-10-21T12:21:49.345Z,4.40
2018-10-21T12:24:17.776Z,5.73
2018-10-21T12:26:46.187Z,4.90
2018-10-21T12:29:14.628Z,4.63
2018-10-21T12:31:43.059Z,4.40
2018-10-21T12:34:13.950Z,4.20
2018-10-21T12:36:42.253Z,17.97
2018-10-21T12:39:11.667Z,4.67
2018-10-21T12:41:40.924Z,5.30
2018-10-21T12:44:09.393Z,6.30
2018-10-21T12:46:38.361Z,5.20
2018-10-21T12:49:07.027Z,4.70
2018-10-21T12:51:36.365Z,3.87
2018-10-21T12:54:05.378Z,4.57
2018-10-21T12:56:34.683Z,3.40
2018-10-21T12:59:03.092Z,3.27
2018-10-21T13:01:31.517Z,3.87
2018-10-21T13:04:00.014Z,3.40
2018-10-21T13:06:28.428Z,4.93
2018-10-21T13:08:56.956Z,4.60
2018-10-21T13:11:25.466Z,5.77
2018-10-21T13:13:53.936Z,5.50
2018-10-21T13:16:22.379Z,3.70
2018-10-21T13:18:50.824Z,3.13
2018-10-21T13:21:19.306Z,2.57
2018-10-21T13:23:47.752Z,2.90
2018-10-21T13:26:16.157Z,2.40
2018-10-21T13:28:44.592Z,2.87
2018-10-21T13:31:13.138Z,9.30
2018-10-21T13:33:41.494Z,3.07
2018-10-21T13:36:09.934Z,11.53
2018-10-21T13:38:38.408Z,4.53
2018-10-21T13:41:06.884Z,3.37
2018-10-21T13:43:35.373Z,2.90
2018-10-21T13:46:03.974Z,3.20
2018-10-21T13:48:32.316Z,3.23
2018-10-21T13:51:00.808Z,2.67
2018-10-21T13:53:29.239Z,2.50
2018-10-21T13:55:57.661Z,2.83
2018-10-21T13:58:26.037Z,3.40
2018-10-21T14:00:54.556Z,2.33
2018-10-21T14:03:22.875Z,3.17
2018-10-21T14:05:51.304Z,2.60
2018-10-21T14:08:19.730Z,4.40
2018-10-21T14:10:48.136Z,3.10
2018-10-21T14:13:16.630Z,2.83
2018-10-21T14:15:45.092Z,2.80
2018-10-21T14:18:13.441Z,2.23
2018-10-21T14:20:46.166Z,2.57
2018-10-21T14:23:14.600Z,2.47
2018-10-21T14:25:43.001Z,2.20
2018-10-21T14:28:11.532Z,3.63
2018-10-21T14:30:39.980Z,5.57
2018-10-21T14:33:08.461Z,3.57
2018-10-21T14:35:36.812Z,2.57
2018-10-21T14:38:05.334Z,2.50
2018-10-21T14:40:33.685Z,2.80
2018-10-21T14:43:02.100Z,2.13
2018-10-21T14:45:30.476Z,2.50
2018-10-21T14:47:59.210Z,4.70
2018-10-21T14:50:27.593Z,3.37
2018-10-21T14:52:56.018Z,4.10
2018-10-21T14:55:24.409Z,9.17
2018-10-21T14:57:52.882Z,4.83
2018-10-21T15:00:21.348Z,3.00
2018-10-21T15:02:49.787Z,3.40
2018-10-21T15:05:18.181Z,3.10
2018-10-21T15:07:47.132Z,3.67
2018-10-21T15:10:15.585Z,2.90
2018-10-21T15:12:44.032Z,2.50
2018-10-21T15:15:12.536Z,2.60
2018-10-21T15:17:40.992Z,21.23
2018-10-21T15:20:11.447Z,48.07
2018-10-21T15:22:39.861Z,7.03
2018-10-21T15:25:09.951Z,8.53
2018-10-21T15:27:38.739Z,5.03
2018-10-21T15:30:08.435Z,5.63
2018-10-21T15:32:36.909Z,4.60
2018-10-21T15:35:05.994Z,3.90
2018-10-21T15:37:34.453Z,3.50
2018-10-21T15:40:04.230Z,4.67
2018-10-21T15:42:33.625Z,4.83
2018-10-21T15:45:01.980Z,4.27
2018-10-21T15:47:30.405Z,3.27
2018-10-21T15:49:59.781Z,4.27
2018-10-21T15:52:28.239Z,3.77
2018-10-21T15:54:56.641Z,5.40
2018-10-21T15:57:25.775Z,6.93
2018-10-21T15:59:54.192Z,8.53
2018-10-21T16:02:22.721Z,7.93
2018-10-21T16:04:51.168Z,8.40
2018-10-21T16:07:19.585Z,4.00
2018-10-21T16:09:48.085Z,5.03
2018-10-21T16:12:16.547Z,12.07
2018-10-21T16:14:44.962Z,8.03
2018-10-21T16:17:13.382Z,6.27
2018-10-21T16:19:41.819Z,3.17
2018-10-21T16:22:10.222Z,6.30
2018-10-21T16:24:38.648Z,6.00
2018-10-21T16:27:07.125Z,6.57
2018-10-21T16:29:35.590Z,7.63
2018-10-21T16:32:04.191Z,7.80
2018-10-21T16:34:32.487Z,9.10
2018-10-21T16:37:00.912Z,6.10
2018-10-21T16:39:29.328Z,3.87
2018-10-21T16:41:57.784Z,9.30
2018-10-21T16:44:26.175Z,6.00
2018-10-21T16:46:54.660Z,42.03
2018-10-21T16:49:23.116Z,26.57
2018-10-21T16:51:51.599Z,23.33
2018-10-21T16:54:20.072Z,13.93
2018-10-21T16:56:48.528Z,6.20
2018-10-21T16:59:17.011Z,5.10
2018-10-21T17:01:45.394Z,15.83
2018-10-21T17:04:14.934Z,3.93
2018-10-21T17:06:43.321Z,3.00
2018-10-21T17:09:13.899Z,3.30
2018-10-21T17:11:42.573Z,2.80
2018-10-21T17:14:11.032Z,3.60
2018-10-21T17:16:39.568Z,3.20
2018-10-21T17:19:08.136Z,5.10
2018-10-21T17:21:36.605Z,3.53
2018-10-21T17:24:05.053Z,3.13
2018-10-21T17:26:33.484Z,2.57
2018-10-21T17:29:01.945Z,2.70
2018-10-21T17:31:30.332Z,4.00
2018-10-21T17:33:58.747Z,3.60
2018-10-21T17:36:27.167Z,5.20
2018-10-21T17:38:55.568Z,4.83
2018-10-21T17:41:23.989Z,4.40
2018-10-21T17:43:52.418Z,4.33
2018-10-21T17:46:20.960Z,3.60
2018-10-21T17:48:49.422Z,3.30
2018-10-21T17:51:17.938Z,3.60
2018-10-21T17:53:46.421Z,3.80
2018-10-21T17:56:14.926Z,3.20
2018-10-21T17:58:43.341Z,4.10
2018-10-21T18:01:18.172Z,6.30
2018-10-21T18:03:48.195Z,3.13
2018-10-21T18:06:18.720Z,3.90
2018-10-21T18:08:47.164Z,2.97
2018-10-21T18:11:17.404Z,3.60
2018-10-21T18:13:49.362Z,3.07
2018-10-21T18:16:19.243Z,2.80
2018-10-21T18:21:29.183Z,2.70
2018-10-21T18:23:57.737Z,3.00
2018-10-21T18:26:26.235Z,3.77
2018-10-21T18:28:54.722Z,3.50
2018-10-21T18:31:23.285Z,2.97
2018-10-21T18:33:51.762Z,3.50
2018-10-21T18:36:20.222Z,2.77
2018-10-21T18:38:48.736Z,3.10
2018-10-21T18:41:17.342Z,3.00
2018-10-21T18:43:45.783Z,3.50
2018-10-21T18:46:14.264Z,3.50
2018-10-21T18:48:42.770Z,3.30
2018-10-21T18:51:11.206Z,3.10
2018-10-21T18:53:40.615Z,2.77
2018-10-21T18:56:09.079Z,3.17
2018-10-21T18:58:37.612Z,3.70
2018-10-21T19:01:06.084Z,3.90
2018-10-21T19:03:34.645Z,3.40
2018-10-21T19:06:03.201Z,5.10
2018-10-21T19:08:31.669Z,3.70
2018-10-21T19:11:00.133Z,7.83
2018-10-21T19:13:28.690Z,20.90
2018-10-21T19:15:57.146Z,18.23
2018-10-21T19:18:25.633Z,8.43
2018-10-21T19:20:54.177Z,7.27
2018-10-21T19:23:22.626Z,4.30
2018-10-21T19:25:51.043Z,3.20
2018-10-21T19:28:19.603Z,4.90
2018-10-21T19:30:48.063Z,18.33
2018-10-21T19:33:16.528Z,9.20
2018-10-21T19:35:45.013Z,6.00
2018-10-21T19:38:13.479Z,5.30
2018-10-21T19:40:41.943Z,4.90
2018-10-21T19:43:10.472Z,4.27
2018-10-21T19:45:38.881Z,4.07
2018-10-21T19:48:07.359Z,6.57
2018-10-21T19:50:35.812Z,4.60
2018-10-21T19:53:04.324Z,3.83
2018-10-21T19:55:32.824Z,4.70
2018-10-21T19:58:01.338Z,4.80
2018-10-21T20:00:29.749Z,4.73
2018-10-21T20:02:58.208Z,6.80
2018-10-21T20:05:26.722Z,4.40
2018-10-21T20:07:55.180Z,5.10
2018-10-21T20:10:23.616Z,5.03
2018-10-21T20:12:52.125Z,4.37
2018-10-21T20:15:20.628Z,4.57
2018-10-21T20:17:49.054Z,5.43
2018-10-21T20:20:17.542Z,5.20
2018-10-21T20:22:46.600Z,5.90
2018-10-21T20:25:15.252Z,5.43
2018-10-21T20:27:43.685Z,6.30
2018-10-21T20:30:13.482Z,6.67
2018-10-21T20:32:42.396Z,7.57
2018-10-21T20:35:11.844Z,7.80
2018-10-21T20:37:40.410Z,7.43
2018-10-21T20:40:09.666Z,7.30
2018-10-21T20:42:38.229Z,6.90
2018-10-21T20:45:08.177Z,6.77
2018-10-21T20:47:36.762Z,6.70
2018-10-21T20:50:05.829Z,6.40
2018-10-21T20:52:34.321Z,6.10
2018-10-21T20:55:02.784Z,6.77
2018-10-21T20:57:31.194Z,6.57
2018-10-21T20:59:59.617Z,5.83
2018-10-21T21:02:30.394Z,6.90
2018-10-21T21:04:58.841Z,6.33
2018-10-21T21:07:27.336Z,7.90
2018-10-21T21:09:56.511Z,9.07
2018-10-21T21:12:24.907Z,10.27
2018-10-21T21:14:53.413Z,12.83
2018-10-21T21:17:21.844Z,13.97
2018-10-21T21:19:50.320Z,11.40
2018-10-21T21:22:18.864Z,9.10
2018-10-21T21:24:47.205Z,8.00
2018-10-21T21:27:15.648Z,6.57
2018-10-21T21:29:44.131Z,6.40
2018-10-21T21:32:21.080Z,6.83
2018-10-21T21:34:49.526Z,5.83
2018-10-21T21:37:17.946Z,5.80
2018-10-21T21:39:46.371Z,5.83
2018-10-21T21:42:14.783Z,4.97
2018-10-21T21:44:43.233Z,6.07
2018-10-21T21:47:11.752Z,5.00
2018-10-21T21:49:40.169Z,6.47
2018-10-21T21:52:11.002Z,6.50
2018-10-21T21:54:40.408Z,5.97
2018-10-21T21:57:08.921Z,5.00
2018-10-21T21:59:37.339Z,5.70
2018-10-21T22:02:05.763Z,6.10
2018-10-21T22:04:34.192Z,5.33
2018-10-21T22:07:02.641Z,5.47
2018-10-21T22:09:31.107Z,5.00
2018-10-21T22:11:59.608Z,5.17
2018-10-21T22:17:12.989Z,5.90
2018-10-21T22:19:41.400Z,6.07
2018-10-21T22:22:16.657Z,5.30
2018-10-21T22:27:30.719Z,5.70
2018-10-21T22:29:59.213Z,5.40
2018-10-21T22:32:27.686Z,5.30
2018-10-21T22:34:56.159Z,4.57
2018-10-21T22:37:24.552Z,5.43
2018-10-21T22:39:53.865Z,5.17
2018-10-21T22:42:23.038Z,5.63
2018-10-21T22:44:52.104Z,5.83
2018-10-21T22:50:03.621Z,6.40
2018-10-21T22:52:33.477Z,5.73
2018-10-21T22:55:01.927Z,5.83
2018-10-21T22:57:30.346Z,5.30
2018-10-21T22:59:58.792Z,5.07
2018-10-21T23:02:27.260Z,5.50
2018-10-21T23:04:55.710Z,5.13
2018-10-21T23:07:24.160Z,5.77
2018-10-21T23:09:53.130Z,5.17
2018-10-21T23:12:21.570Z,5.90
2018-10-21T23:14:50.098Z,5.73
2018-10-21T23:17:18.552Z,5.80
2018-10-21T23:19:48.446Z,5.97
2018-10-21T23:22:17.030Z,5.10
2018-10-21T23:24:45.400Z,5.57
2018-10-21T23:27:14.324Z,5.20
2018-10-21T23:29:43.711Z,6.40
2018-10-21T23:32:12.352Z,5.20
2018-10-21T23:34:40.841Z,5.60
2018-10-21T23:37:09.253Z,4.80
2018-10-21T23:39:37.723Z,4.80
2018-10-21T23:42:06.219Z,5.90
2018-10-21T23:44:34.628Z,6.50
2018-10-21T23:47:03.132Z,5.80
2018-10-21T23:49:31.588Z,5.70
2018-10-21T23:52:00.072Z,5.80
2018-10-21T23:54:28.444Z,6.30
2018-10-21T23:56:56.899Z,5.63
2018-10-21T23:59:25.376Z,5.73
